CheckWX is a tool to help pilots better visualize weather data.  It is not intended as a substitute for an official pre-flight weather briefing.

00:11:08 UTC

KIAD METAR
Washington Dulles International Airport
Washington, Virginia, USA
Current

10 mins ago

KIAD 230001Z 34005KT 10SM SCT008 BKN080 14/13 A2986 RMK AO2 T01440133
Observed
Oct-23 @ 00:01 UTC
Wind
  • 340° at 5 KTS
Visibility
10 SM
Flight Rules
VFR
Cloud Levels
  • Scattered at 800' AGL
  • Broken at 8,000' AGL
Temperature
14°C / 57°F
Dewpoint
13°C / 55°F
Humidity
94%
Altimeter
29.86" Hg
Pressure
1011.22 hPa
Previous

19 mins ago

KIAD 222352Z 33005KT 10SM BKN008 BKN080 14/13 A2985 RMK AO2 SLP107 60035 T01440133 10150 20139 53005
Observed
Oct-22 @ 23:52 UTC
Wind
  • 330° at 5 KTS
Visibility
10 SM
Flight Rules
IFR
Cloud Levels
  • Broken at 800' AGL
  • Broken at 8,000' AGL
Temperature
14°C / 57°F
Dewpoint
13°C / 55°F
Humidity
94%
Altimeter
29.85" Hg
Pressure
1010.82 hPa
Previous

1 hour ago

KIAD 222308Z 29008KT 10SM BKN007 OVC070 15/13 A2983 RMK AO2 T01500133
Observed
Oct-22 @ 23:08 UTC
Wind
  • 290° at 8 KTS
Visibility
10 SM
Flight Rules
IFR
Cloud Levels
  • Broken at 700' AGL
  • Overcast at 7,000' AGL
Temperature
15°C / 59°F
Dewpoint
13°C / 55°F
Humidity
88%
Altimeter
29.83" Hg
Pressure
1010.12 hPa